createdAt,value
2022-12-06T00:01:33.819Z,6.03
2022-12-06T00:04:06.775Z,4.80
2022-12-06T00:06:38.588Z,4.60
2022-12-06T00:09:09.351Z,5.30
2022-12-06T00:11:38.788Z,5.97
2022-12-06T00:14:08.936Z,7.60
2022-12-06T00:16:37.875Z,5.53
2022-12-06T00:19:07.158Z,8.03
2022-12-06T00:21:37.524Z,6.40
2022-12-06T00:24:09.254Z,4.90
2022-12-06T00:26:38.789Z,6.30
2022-12-06T00:29:08.874Z,5.60
2022-12-06T00:31:37.557Z,5.73
2022-12-06T00:34:06.507Z,5.53
2022-12-06T00:36:36.272Z,5.40
2022-12-06T00:39:06.876Z,10.97
2022-12-06T00:41:37.260Z,6.20
2022-12-06T00:44:06.136Z,6.20
2022-12-06T00:46:35.868Z,5.70
2022-12-06T00:49:06.075Z,5.93
2022-12-06T00:51:35.948Z,7.43
2022-12-06T00:54:04.782Z,7.33
2022-12-06T00:56:35.530Z,5.27
2022-12-06T00:59:05.778Z,5.13
2022-12-06T01:01:36.191Z,7.10
2022-12-06T01:04:07.109Z,8.40
2022-12-06T01:06:37.608Z,7.30
2022-12-06T01:09:09.687Z,7.37
2022-12-06T01:11:38.691Z,11.60
2022-12-06T01:14:09.072Z,9.50
2022-12-06T01:16:37.827Z,11.80
2022-12-06T01:19:07.988Z,13.27
2022-12-06T01:21:36.710Z,7.43
2022-12-06T01:24:05.852Z,12.70
2022-12-06T01:26:36.008Z,15.13
2022-12-06T01:29:06.912Z,9.77
2022-12-06T01:31:38.957Z,8.67
2022-12-06T01:34:09.237Z,7.03
2022-12-06T01:36:37.866Z,8.23
2022-12-06T01:39:10.475Z,8.50
2022-12-06T01:41:40.329Z,7.43
2022-12-06T01:44:41.888Z,8.30
2022-12-06T01:47:16.210Z,9.20
2022-12-06T01:49:48.723Z,9.43
2022-12-06T01:52:17.718Z,6.60
2022-12-06T01:54:46.744Z,7.17
2022-12-06T01:57:17.317Z,12.87
2022-12-06T01:59:48.098Z,7.30
2022-12-06T02:02:16.916Z,10.30
2022-12-06T02:04:46.317Z,8.93
2022-12-06T02:07:15.617Z,6.73
2022-12-06T02:09:45.966Z,12.97
2022-12-06T02:12:16.170Z,8.23
2022-12-06T02:14:48.369Z,7.70
2022-12-06T02:17:28.336Z,8.23
2022-12-06T02:20:14.516Z,10.33
2022-12-06T02:23:16.436Z,8.40
2022-12-06T02:26:16.331Z,9.60
2022-12-06T02:29:14.845Z,10.67
2022-12-06T02:31:51.213Z,8.43
2022-12-06T02:34:27.141Z,11.23
2022-12-06T02:37:04.906Z,8.80
2022-12-06T02:39:37.379Z,9.40
2022-12-06T02:42:09.583Z,11.70
2022-12-06T02:44:41.979Z,9.13
2022-12-06T02:47:14.112Z,9.00
2022-12-06T02:49:46.642Z,11.13
2022-12-06T02:52:16.347Z,9.13
2022-12-06T02:54:47.445Z,8.97
2022-12-06T02:57:16.030Z,9.30
2022-12-06T02:59:53.391Z,10.30
2022-12-06T03:02:24.596Z,8.33
2022-12-06T03:05:09.503Z,15.20
2022-12-06T03:07:42.608Z,8.00
2022-12-06T03:10:23.418Z,7.77
2022-12-06T03:13:01.670Z,6.63
2022-12-06T03:15:38.572Z,10.97
2022-12-06T03:18:15.457Z,9.57
2022-12-06T03:20:48.538Z,16.10
2022-12-06T03:23:22.230Z,9.80
2022-12-06T03:25:52.842Z,12.13
2022-12-06T03:28:23.334Z,15.63
2022-12-06T03:30:53.951Z,10.87
2022-12-06T03:33:26.787Z,11.93
2022-12-06T03:35:58.586Z,9.00
2022-12-06T03:38:35.541Z,6.77
2022-12-06T03:41:07.340Z,8.90
2022-12-06T03:43:36.601Z,9.60
2022-12-06T03:46:12.288Z,8.60
2022-12-06T03:48:45.868Z,10.30
2022-12-06T03:51:19.439Z,13.07
2022-12-06T03:53:50.113Z,8.53
2022-12-06T03:56:19.130Z,13.23
2022-12-06T03:58:47.961Z,9.20
2022-12-06T04:01:16.974Z,11.87
2022-12-06T04:03:47.171Z,9.70
2022-12-06T04:06:16.422Z,9.87
2022-12-06T04:08:45.061Z,9.70
2022-12-06T04:11:13.670Z,9.40
2022-12-06T04:13:42.664Z,7.70
2022-12-06T04:16:25.486Z,9.97
2022-12-06T04:18:55.975Z,11.40
2022-12-06T04:21:41.712Z,10.00
2022-12-06T04:24:10.495Z,10.80
2022-12-06T04:26:39.534Z,7.70
2022-12-06T04:29:25.803Z,7.50
2022-12-06T04:32:11.870Z,10.70
2022-12-06T04:34:59.400Z,12.40
2022-12-06T04:37:45.464Z,10.63
2022-12-06T04:40:14.198Z,9.07
2022-12-06T04:42:59.985Z,15.20
2022-12-06T04:45:28.618Z,9.07
2022-12-06T04:47:57.438Z,8.63
2022-12-06T04:50:27.660Z,11.47
2022-12-06T04:52:56.387Z,10.20
2022-12-06T04:55:25.217Z,11.50
2022-12-06T04:57:53.847Z,11.67
2022-12-06T05:00:22.809Z,14.17
2022-12-06T05:02:51.453Z,10.97
2022-12-06T05:05:20.224Z,11.07
2022-12-06T05:07:50.493Z,10.90
2022-12-06T05:10:19.466Z,15.93
2022-12-06T05:12:48.115Z,8.73
2022-12-06T05:15:17.197Z,20.40
2022-12-06T05:17:45.975Z,10.10
2022-12-06T05:20:15.405Z,12.33
2022-12-06T05:22:44.110Z,9.60
2022-12-06T05:25:14.962Z,12.70
2022-12-06T05:27:43.717Z,9.60
2022-12-06T05:30:13.315Z,13.10
2022-12-06T05:32:42.696Z,13.80
2022-12-06T05:35:11.832Z,12.97
2022-12-06T05:37:40.648Z,13.93
2022-12-06T05:40:10.184Z,12.67
2022-12-06T05:42:41.857Z,13.30
2022-12-06T05:45:11.840Z,14.30
2022-12-06T05:47:41.032Z,18.53
2022-12-06T05:50:10.602Z,14.40
2022-12-06T05:52:39.224Z,13.73
2022-12-06T05:55:08.673Z,11.90
2022-12-06T05:57:40.101Z,13.87
2022-12-06T06:00:13.791Z,12.23
2022-12-06T06:02:42.734Z,14.17
2022-12-06T06:05:11.994Z,16.73
2022-12-06T06:07:40.761Z,14.70
2022-12-06T06:10:10.106Z,14.13
2022-12-06T06:12:38.836Z,14.27
2022-12-06T06:15:08.547Z,13.77
2022-12-06T06:17:39.323Z,13.57
2022-12-06T06:20:10.725Z,14.67
2022-12-06T06:22:41.273Z,12.73
2022-12-06T06:25:10.874Z,11.83
2022-12-06T06:27:39.945Z,14.83
2022-12-06T06:30:10.815Z,14.83
2022-12-06T06:32:41.387Z,13.00
2022-12-06T06:35:10.696Z,15.47
2022-12-06T06:37:39.453Z,18.50
2022-12-06T06:40:09.252Z,23.87
2022-12-06T06:42:38.010Z,17.70
2022-12-06T06:45:07.739Z,18.73
2022-12-06T06:47:36.748Z,16.53
2022-12-06T06:50:08.198Z,24.47
2022-12-06T06:52:36.910Z,44.33
2022-12-06T06:55:06.310Z,28.47
2022-12-06T06:57:36.216Z,33.83
2022-12-06T07:00:06.847Z,36.60
2022-12-06T07:02:35.646Z,43.37
2022-12-06T07:05:06.173Z,56.77
2022-12-06T07:07:35.188Z,35.97
2022-12-06T07:10:03.981Z,25.90
2022-12-06T07:12:32.790Z,25.97
2022-12-06T07:15:01.472Z,17.77
2022-12-06T07:17:30.165Z,26.50
2022-12-06T07:19:59.039Z,19.20
2022-12-06T07:22:30.548Z,21.37
2022-12-06T07:24:59.373Z,16.77
2022-12-06T07:27:28.268Z,19.27
2022-12-06T07:29:57.810Z,14.20
2022-12-06T07:32:26.863Z,17.10
2022-12-06T07:34:55.711Z,19.33
2022-12-06T07:37:24.670Z,16.67
2022-12-06T07:39:54.893Z,12.47
2022-12-06T07:42:40.914Z,22.03
2022-12-06T07:45:12.510Z,11.90
2022-12-06T07:47:43.650Z,13.23
2022-12-06T07:50:18.280Z,15.07
2022-12-06T07:52:48.615Z,11.63
2022-12-06T07:55:19.425Z,17.87
2022-12-06T07:57:49.179Z,14.03
2022-12-06T08:00:18.665Z,16.53
2022-12-06T08:02:47.681Z,15.63
2022-12-06T08:05:16.515Z,12.37
2022-12-06T08:07:45.492Z,12.93
2022-12-06T08:10:14.291Z,62.50
2022-12-06T08:12:44.671Z,56.10
2022-12-06T08:15:14.189Z,95.77
2022-12-06T08:17:43.357Z,39.90
2022-12-06T08:20:13.640Z,29.83
2022-12-06T08:22:42.625Z,34.90
2022-12-06T08:25:11.997Z,17.83
2022-12-06T08:27:40.748Z,21.03
2022-12-06T08:30:11.552Z,19.57
2022-12-06T08:32:40.429Z,22.73
2022-12-06T08:35:09.917Z,20.60
2022-12-06T08:37:38.875Z,16.07
2022-12-06T08:40:09.237Z,25.03
2022-12-06T08:42:38.149Z,19.73
2022-12-06T08:45:08.141Z,18.83
2022-12-06T08:47:38.454Z,18.60
2022-12-06T08:50:08.479Z,15.30
2022-12-06T08:52:37.539Z,16.60
2022-12-06T08:55:06.919Z,22.00
2022-12-06T08:57:35.634Z,57.37
2022-12-06T09:00:05.259Z,24.50
2022-12-06T09:02:33.949Z,23.67
2022-12-06T09:05:04.174Z,18.17
2022-12-06T09:07:33.012Z,24.07
2022-12-06T09:10:02.476Z,14.87
2022-12-06T09:12:31.298Z,23.73
2022-12-06T09:14:59.902Z,16.47
2022-12-06T09:17:28.587Z,23.10
2022-12-06T09:20:02.118Z,20.13
2022-12-06T09:22:35.461Z,19.50
2022-12-06T09:25:04.238Z,17.67
2022-12-06T09:27:33.477Z,14.70
2022-12-06T09:30:02.443Z,13.67
2022-12-06T09:32:31.361Z,24.47
2022-12-06T09:35:00.040Z,21.00
2022-12-06T09:37:28.692Z,21.77
2022-12-06T09:40:03.871Z,17.30
2022-12-06T09:42:57.364Z,20.77
2022-12-06T09:45:58.137Z,15.60
2022-12-06T09:49:02.510Z,16.73
2022-12-06T09:51:51.417Z,16.67
2022-12-06T09:54:34.477Z,16.50
2022-12-06T09:57:08.494Z,18.00
2022-12-06T09:59:49.445Z,18.20
2022-12-06T10:02:33.545Z,16.83
2022-12-06T10:05:23.001Z,15.60
2022-12-06T10:07:59.978Z,16.07
2022-12-06T10:10:39.112Z,15.40
2022-12-06T10:13:14.457Z,17.20
2022-12-06T10:15:54.348Z,16.73
2022-12-06T10:18:40.098Z,16.60
2022-12-06T10:21:18.754Z,14.30
2022-12-06T10:24:02.196Z,14.57
2022-12-06T10:26:35.410Z,16.47
2022-12-06T10:29:14.772Z,18.40
2022-12-06T10:31:53.948Z,21.83
2022-12-06T10:34:32.313Z,17.90
2022-12-06T10:37:09.659Z,16.70
2022-12-06T10:39:51.858Z,16.63
2022-12-06T10:42:31.820Z,19.20
2022-12-06T10:45:29.243Z,17.90
2022-12-06T10:47:58.863Z,16.53
2022-12-06T10:50:31.065Z,20.90
2022-12-06T10:53:05.056Z,18.17
2022-12-06T10:55:37.550Z,20.20
2022-12-06T10:58:17.881Z,13.87
2022-12-06T11:00:55.928Z,18.17
2022-12-06T11:03:31.097Z,12.03
2022-12-06T11:06:03.944Z,17.83
2022-12-06T11:08:37.168Z,16.30
2022-12-06T11:11:07.358Z,16.67
2022-12-06T11:13:39.406Z,16.03
2022-12-06T11:16:15.425Z,13.93
2022-12-06T11:18:45.888Z,16.03
2022-12-06T11:21:25.139Z,17.40
2022-12-06T11:24:02.288Z,16.17
2022-12-06T11:26:37.438Z,17.90
2022-12-06T11:29:10.922Z,14.90
2022-12-06T11:31:45.480Z,11.17
2022-12-06T11:34:19.777Z,21.13
2022-12-06T11:36:55.246Z,20.10
2022-12-06T11:39:28.553Z,22.63
2022-12-06T11:41:59.588Z,30.07
2022-12-06T11:44:30.495Z,21.77
2022-12-06T11:47:03.577Z,28.10
2022-12-06T11:49:35.872Z,17.70
2022-12-06T11:52:08.662Z,18.07
2022-12-06T11:54:43.579Z,21.77
2022-12-06T11:57:22.823Z,32.80
2022-12-06T12:00:16.371Z,16.53
2022-12-06T12:02:48.388Z,21.43
2022-12-06T12:05:23.085Z,15.00
2022-12-06T12:07:55.025Z,15.67
2022-12-06T12:10:32.873Z,11.30
2022-12-06T12:13:35.953Z,9.03
2022-12-06T12:16:12.599Z,25.30
2022-12-06T12:18:49.865Z,15.93
2022-12-06T12:21:29.268Z,20.13
2022-12-06T12:23:58.406Z,19.67
2022-12-06T12:26:37.815Z,14.23
2022-12-06T12:29:18.423Z,17.37
2022-12-06T12:31:56.291Z,17.67
2022-12-06T12:34:29.142Z,18.00
2022-12-06T12:37:00.785Z,19.00
2022-12-06T12:39:35.946Z,20.17
2022-12-06T12:42:05.378Z,17.83
2022-12-06T12:44:38.502Z,14.27
2022-12-06T12:47:18.739Z,17.70
2022-12-06T12:50:20.154Z,19.37
2022-12-06T12:52:48.938Z,14.47
2022-12-06T12:55:20.608Z,14.07
2022-12-06T12:57:51.235Z,12.50
2022-12-06T13:00:22.243Z,18.90
2022-12-06T13:02:56.394Z,15.37
2022-12-06T13:05:34.521Z,22.40
2022-12-06T13:08:12.562Z,27.37
2022-12-06T13:10:43.628Z,13.03
2022-12-06T13:13:17.557Z,12.83
2022-12-06T13:15:49.645Z,18.47
2022-12-06T13:18:23.482Z,14.77
2022-12-06T13:20:55.768Z,12.93
2022-12-06T13:23:28.492Z,14.77
2022-12-06T13:26:03.608Z,17.20
2022-12-06T13:28:36.461Z,18.90
2022-12-06T13:31:09.304Z,14.87
2022-12-06T13:33:43.468Z,16.30
2022-12-06T13:36:16.636Z,19.13
2022-12-06T13:38:45.763Z,20.17
2022-12-06T13:41:36.199Z,16.03
2022-12-06T13:44:04.886Z,18.23
2022-12-06T13:46:34.779Z,15.00
2022-12-06T13:49:05.841Z,17.17
2022-12-06T13:51:49.348Z,14.30
2022-12-06T13:54:41.911Z,17.13
2022-12-06T13:57:25.986Z,13.57
2022-12-06T13:59:54.809Z,14.10
2022-12-06T14:02:53.991Z,15.93
2022-12-06T14:06:06.060Z,13.70
2022-12-06T14:08:40.540Z,13.47
2022-12-06T14:11:22.400Z,14.40
2022-12-06T14:14:02.086Z,15.57
2022-12-06T14:16:35.428Z,12.93
2022-12-06T14:19:14.424Z,13.03
2022-12-06T14:21:45.919Z,16.80
2022-12-06T14:24:36.704Z,28.10
2022-12-06T14:27:13.114Z,24.53
2022-12-06T14:29:42.674Z,12.43
2022-12-06T14:32:11.686Z,12.30
2022-12-06T14:34:40.603Z,12.40
2022-12-06T14:37:21.760Z,12.47
2022-12-06T14:39:54.770Z,12.33
2022-12-06T14:42:41.093Z,11.87
2022-12-06T14:45:15.589Z,11.50
2022-12-06T14:47:46.085Z,14.53
2022-12-06T14:50:34.965Z,15.50
2022-12-06T14:53:30.128Z,11.30
2022-12-06T14:56:34.858Z,11.03
2022-12-06T15:00:10.888Z,11.10
2022-12-06T15:02:36.899Z,9.57
2022-12-06T15:08:55.091Z,12.57
2022-12-06T15:11:53.214Z,13.60
2022-12-06T15:14:27.305Z,11.23
2022-12-06T15:17:08.008Z,8.23
2022-12-06T15:19:40.007Z,10.80
2022-12-06T15:22:22.961Z,17.03
2022-12-06T15:24:56.476Z,12.20
2022-12-06T15:27:28.008Z,10.60
2022-12-06T15:29:57.223Z,8.73
2022-12-06T15:32:27.443Z,9.77
2022-12-06T15:34:56.139Z,10.30
2022-12-06T15:37:50.153Z,7.77
2022-12-06T15:40:21.201Z,11.40
2022-12-06T15:42:51.742Z,8.93
2022-12-06T15:48:21.771Z,13.67
2022-12-06T15:51:35.553Z,10.47
2022-12-06T15:55:19.371Z,12.47
2022-12-06T15:57:48.128Z,20.43
2022-12-06T16:00:37.479Z,13.50
2022-12-06T16:03:10.159Z,14.30
2022-12-06T16:05:39.383Z,9.27
2022-12-06T16:08:11.576Z,10.17
2022-12-06T16:11:10.221Z,9.03
2022-12-06T16:13:31.488Z,6.40
2022-12-06T16:16:02.075Z,9.70
2022-12-06T16:18:31.570Z,9.23
2022-12-06T16:21:04.285Z,5.93
2022-12-06T16:24:19.216Z,6.13
2022-12-06T16:27:15.231Z,7.73
2022-12-06T16:29:43.841Z,10.63
2022-12-06T16:32:13.835Z,7.10
2022-12-06T16:34:42.384Z,6.70
2022-12-06T16:37:12.775Z,13.93
2022-12-06T16:39:41.625Z,6.87
2022-12-06T16:42:10.244Z,7.00
2022-12-06T16:44:51.177Z,7.23
2022-12-06T16:49:49.731Z,6.37
2022-12-06T16:52:18.752Z,9.50
2022-12-06T16:54:47.646Z,11.07
2022-12-06T16:57:19.268Z,17.80
2022-12-06T16:59:48.098Z,31.67
2022-12-06T17:02:30.026Z,35.27
2022-12-06T17:05:01.122Z,18.90
2022-12-06T17:07:30.683Z,17.53
2022-12-06T17:09:59.417Z,22.37
2022-12-06T17:12:28.237Z,17.30
2022-12-06T17:14:56.836Z,14.87
2022-12-06T17:17:29.277Z,16.23
2022-12-06T17:19:57.862Z,17.50
2022-12-06T17:22:26.807Z,12.87
2022-12-06T17:24:56.700Z,15.67
2022-12-06T17:27:25.314Z,29.37
2022-12-06T17:29:54.012Z,13.70
2022-12-06T17:32:23.612Z,10.93
2022-12-06T17:34:53.639Z,10.83
2022-12-06T17:37:22.481Z,10.23
2022-12-06T17:39:51.123Z,9.27
2022-12-06T17:42:37.442Z,4.33
2022-12-06T17:45:07.616Z,6.20
2022-12-06T17:47:36.309Z,7.97
2022-12-06T17:50:07.805Z,5.20
2022-12-06T17:52:36.475Z,2.50
2022-12-06T17:55:05.606Z,3.10
2022-12-06T17:57:34.405Z,4.93
2022-12-06T18:00:03.336Z,13.03
2022-12-06T18:02:32.132Z,5.67
2022-12-06T18:05:01.515Z,5.87
2022-12-06T18:07:31.997Z,3.30
2022-12-06T18:10:00.649Z,3.77
2022-12-06T18:12:32.077Z,4.20
2022-12-06T18:15:02.667Z,2.80
2022-12-06T18:17:31.597Z,3.13
2022-12-06T18:20:00.455Z,3.60
2022-12-06T18:22:30.601Z,3.93
2022-12-06T18:24:59.798Z,4.30
2022-12-06T18:27:28.611Z,5.03
2022-12-06T18:29:57.737Z,4.93
2022-12-06T18:32:26.501Z,2.93
2022-12-06T18:34:55.216Z,5.33
2022-12-06T18:37:23.863Z,3.73
2022-12-06T18:39:54.594Z,2.53
2022-12-06T18:42:23.234Z,2.57
2022-12-06T18:44:57.905Z,4.30
2022-12-06T18:47:27.108Z,4.90
2022-12-06T18:49:56.565Z,8.43
2022-12-06T18:52:25.388Z,9.83
2022-12-06T18:54:55.904Z,6.80
2022-12-06T18:57:30.493Z,6.30
2022-12-06T19:00:01.141Z,2.67
2022-12-06T19:02:30.119Z,4.27
2022-12-06T19:04:59.114Z,5.37
2022-12-06T19:07:28.151Z,3.90
2022-12-06T19:09:58.245Z,6.33
2022-12-06T19:12:27.206Z,2.97
2022-12-06T19:14:55.853Z,5.03
2022-12-06T19:17:24.581Z,3.00
2022-12-06T19:19:53.435Z,2.43
2022-12-06T19:22:22.100Z,2.80
2022-12-06T19:24:51.022Z,3.20
2022-12-06T19:27:20.996Z,3.07
2022-12-06T19:29:49.762Z,2.73
2022-12-06T19:32:18.401Z,3.90
2022-12-06T19:34:47.342Z,3.17
2022-12-06T19:37:16.035Z,3.03
2022-12-06T19:39:45.878Z,2.67
2022-12-06T19:42:31.684Z,3.47
2022-12-06T19:45:01.807Z,3.40
2022-12-06T19:47:31.321Z,2.60
2022-12-06T19:50:00.758Z,3.47
2022-12-06T19:52:31.189Z,3.43
2022-12-06T19:54:59.887Z,5.17
2022-12-06T19:57:28.661Z,5.67
2022-12-06T19:59:57.369Z,6.20
2022-12-06T20:02:27.484Z,3.20
2022-12-06T20:04:56.188Z,3.87
2022-12-06T20:07:24.844Z,4.20
2022-12-06T20:09:53.513Z,3.00
2022-12-06T20:12:22.103Z,6.93
2022-12-06T20:14:51.740Z,4.00
2022-12-06T20:17:23.645Z,3.27
2022-12-06T20:19:53.798Z,3.77
2022-12-06T20:22:22.776Z,3.70
2022-12-06T20:24:51.566Z,2.50
2022-12-06T20:27:40.783Z,2.37
2022-12-06T20:30:10.785Z,3.07
2022-12-06T20:32:39.430Z,2.47
2022-12-06T20:35:10.093Z,2.43
2022-12-06T20:37:38.854Z,2.27
2022-12-06T20:40:09.247Z,2.57
2022-12-06T20:42:38.042Z,2.27
2022-12-06T20:45:07.683Z,3.17
2022-12-06T20:47:36.407Z,2.70
2022-12-06T20:50:05.914Z,3.00
2022-12-06T20:52:35.999Z,6.03
2022-12-06T20:55:04.721Z,4.30
2022-12-06T20:57:33.398Z,2.67
2022-12-06T21:00:07.063Z,3.50
2022-12-06T21:02:36.480Z,2.80
2022-12-06T21:05:05.710Z,3.40
2022-12-06T21:07:35.856Z,2.20
2022-12-06T21:10:04.895Z,3.83
2022-12-06T21:12:33.680Z,5.63
2022-12-06T21:15:02.379Z,3.43
2022-12-06T21:17:33.911Z,3.03
2022-12-06T21:20:02.841Z,4.43
2022-12-06T21:22:31.814Z,5.80
2022-12-06T21:25:02.153Z,5.10
2022-12-06T21:27:31.142Z,4.73
2022-12-06T21:30:00.045Z,4.97
2022-12-06T21:32:28.986Z,3.73
2022-12-06T21:34:57.687Z,3.97
2022-12-06T21:37:26.353Z,4.33
2022-12-06T21:39:55.023Z,25.30
2022-12-06T21:42:25.084Z,16.50
2022-12-06T21:44:53.735Z,6.17
2022-12-06T21:47:22.470Z,6.27
2022-12-06T21:49:51.157Z,9.50
2022-12-06T21:52:19.955Z,6.90
2022-12-06T21:54:48.575Z,8.27
2022-12-06T21:57:27.977Z,7.63
2022-12-06T21:59:58.065Z,10.40
2022-12-06T22:02:26.876Z,8.87
2022-12-06T22:04:55.605Z,12.23
2022-12-06T22:07:24.260Z,12.20
2022-12-06T22:09:53.024Z,16.30
2022-12-06T22:12:21.916Z,9.83
2022-12-06T22:14:50.548Z,16.50
2022-12-06T22:17:20.711Z,15.70
2022-12-06T22:19:49.625Z,22.63
2022-12-06T22:22:19.556Z,15.53
2022-12-06T22:24:48.455Z,26.03
2022-12-06T22:27:17.055Z,20.27
2022-12-06T22:29:45.672Z,27.17
2022-12-06T22:32:14.305Z,33.63
2022-12-06T22:34:44.304Z,33.97
2022-12-06T22:37:12.968Z,34.03
2022-12-06T22:39:41.672Z,28.90
2022-12-06T22:42:10.412Z,41.47
2022-12-06T22:44:39.035Z,29.83
2022-12-06T22:47:07.744Z,34.10
2022-12-06T22:49:36.412Z,27.10
2022-12-06T22:52:06.702Z,33.90
2022-12-06T22:54:35.542Z,28.67
2022-12-06T22:57:04.238Z,34.03
2022-12-06T22:59:32.928Z,28.13
2022-12-06T23:02:01.686Z,32.60
2022-12-06T23:04:30.451Z,26.93
2022-12-06T23:06:59.079Z,29.33
2022-12-06T23:09:29.201Z,29.20
2022-12-06T23:11:57.899Z,29.30
2022-12-06T23:14:26.566Z,29.20
2022-12-06T23:16:55.221Z,23.60
2022-12-06T23:19:23.909Z,22.53
2022-12-06T23:21:52.710Z,25.73
2022-12-06T23:24:21.337Z,22.93
2022-12-06T23:26:57.494Z,25.17
2022-12-06T23:29:26.737Z,26.93
2022-12-06T23:31:55.550Z,18.90
2022-12-06T23:34:26.600Z,20.20
2022-12-06T23:36:57.188Z,20.57
2022-12-06T23:39:25.892Z,20.37
2022-12-06T23:41:56.153Z,20.33
2022-12-06T23:44:25.234Z,17.13
2022-12-06T23:46:54.028Z,16.83
2022-12-06T23:49:23.488Z,22.50
2022-12-06T23:51:52.328Z,16.53
2022-12-06T23:54:21.135Z,21.50
2022-12-06T23:56:49.820Z,21.13
2022-12-06T23:59:20.124Z,21.37
